sensor_id;sensor_type;location;lat;lon;timestamp;pressure;altitude;pressure_sealevel;temperature;humidity
36964;BME280;22878;48.616;35.326;2023-01-09T00:00:51;102856.72;;;-13.87;100.00
36964;BME280;22878;48.616;35.326;2023-01-09T00:03:18;102852.92;;;-13.90;100.00
36964;BME280;22878;48.616;35.326;2023-01-09T00:05:44;102845.17;;;-13.92;100.00
36964;BME280;22878;48.616;35.326;2023-01-09T00:08:10;102840.00;;;-13.92;100.00
36964;BME280;22878;48.616;35.326;2023-01-09T00:10:37;102833.61;;;-13.95;100.00
36964;BME280;22878;48.616;35.326;2023-01-09T00:13:03;102841.45;;;-13.97;100.00
36964;BME280;22878;48.616;35.326;2023-01-09T00:15:29;102840.57;;;-13.97;100.00
36964;BME280;22878;48.616;35.326;2023-01-09T00:17:56;102837.11;;;-13.96;100.00
36964;BME280;22878;48.616;35.326;2023-01-09T00:20:22;102837.11;;;-13.96;100.00
36964;BME280;22878;48.616;35.326;2023-01-09T00:22:50;102838.50;;;-13.99;100.00
36964;BME280;22878;48.616;35.326;2023-01-09T00:25:16;102837.66;;;-14.00;100.00
36964;BME280;22878;48.616;35.326;2023-01-09T00:27:43;102834.16;;;-13.99;100.00
36964;BME280;22878;48.616;35.326;2023-01-09T00:30:10;102830.73;;;-13.99;100.00
36964;BME280;22878;48.616;35.326;2023-01-09T00:32:36;102828.49;;;-13.97;100.00
36964;BME280;22878;48.616;35.326;2023-01-09T00:35:03;102824.61;;;-13.97;100.00
36964;BME280;22878;48.616;35.326;2023-01-09T00:37:30;102825.00;;;-13.96;100.00
36964;BME280;22878;48.616;35.326;2023-01-09T00:39:56;102821.47;;;-13.93;100.00
36964;BME280;22878;48.616;35.326;2023-01-09T00:42:23;102817.16;;;-13.94;100.00
36964;BME280;22878;48.616;35.326;2023-01-09T00:44:54;102808.52;;;-13.93;100.00
36964;BME280;22878;48.616;35.326;2023-01-09T00:47:27;102806.29;;;-13.90;100.00
36964;BME280;22878;48.616;35.326;2023-01-09T00:50:01;102805.02;;;-13.92;100.00
36964;BME280;22878;48.616;35.326;2023-01-09T00:52:30;102804.57;;;-13.91;100.00
36964;BME280;22878;48.616;35.326;2023-01-09T00:54:58;102804.54;;;-13.90;100.00
36964;BME280;22878;48.616;35.326;2023-01-09T00:57:24;102802.49;;;-13.93;100.00
36964;BME280;22878;48.616;35.326;2023-01-09T00:59:51;102799.48;;;-13.94;100.00
36964;BME280;22878;48.616;35.326;2023-01-09T01:02:18;102797.73;;;-13.94;100.00
36964;BME280;22878;48.616;35.326;2023-01-09T01:04:44;102803.79;;;-13.93;100.00
36964;BME280;22878;48.616;35.326;2023-01-09T01:07:28;102796.02;;;-13.93;100.00
36964;BME280;22878;48.616;35.326;2023-01-09T01:12:42;102796.44;;;-13.94;100.00
36964;BME280;22878;48.616;35.326;2023-01-09T01:15:09;102795.20;;;-13.96;100.00
36964;BME280;22878;48.616;35.326;2023-01-09T01:17:37;102791.71;;;-13.94;100.00
36964;BME280;22878;48.616;35.326;2023-01-09T01:20:06;102796.14;;;-13.98;100.00
36964;BME280;22878;48.616;35.326;2023-01-09T01:22:34;102790.13;;;-13.99;100.00
36964;BME280;22878;48.616;35.326;2023-01-09T01:25:02;102786.95;;;-13.93;100.00
36964;BME280;22878;48.616;35.326;2023-01-09T01:27:29;102784.66;;;-13.89;100.00
36964;BME280;22878;48.616;35.326;2023-01-09T01:29:56;102782.52;;;-13.77;100.00
36964;BME280;22878;48.616;35.326;2023-01-09T01:32:23;102776.91;;;-13.76;100.00
36964;BME280;22878;48.616;35.326;2023-01-09T01:34:49;102776.14;;;-13.80;100.00
36964;BME280;22878;48.616;35.326;2023-01-09T01:37:15;102779.64;;;-13.81;100.00
36964;BME280;22878;48.616;35.326;2023-01-09T01:39:42;102774.09;;;-13.83;100.00
36964;BME280;22878;48.616;35.326;2023-01-09T01:42:13;102777.33;;;-13.90;100.00
36964;BME280;22878;48.616;35.326;2023-01-09T01:45:04;102780.99;;;-13.97;100.00
36964;BME280;22878;48.616;35.326;2023-01-09T01:53:20;102780.44;;;-14.07;100.00
36964;BME280;22878;48.616;35.326;2023-01-09T01:56:10;102776.70;;;-14.11;100.00
36964;BME280;22878;48.616;35.326;2023-01-09T01:58:49;102769.81;;;-14.12;100.00
36964;BME280;22878;48.616;35.326;2023-01-09T02:01:15;102773.76;;;-14.14;100.00
36964;BME280;22878;48.616;35.326;2023-01-09T02:03:43;102773.76;;;-14.14;100.00
36964;BME280;22878;48.616;35.326;2023-01-09T02:06:11;102767.64;;;-14.11;100.00
36964;BME280;22878;48.616;35.326;2023-01-09T02:08:41;102763.23;;;-14.09;100.00
36964;BME280;22878;48.616;35.326;2023-01-09T02:11:08;102762.85;;;-14.10;100.00
36964;BME280;22878;48.616;35.326;2023-01-09T02:13:37;102758.06;;;-14.09;100.00
36964;BME280;22878;48.616;35.326;2023-01-09T02:22:16;102738.25;;;-14.10;100.00
36964;BME280;22878;48.616;35.326;2023-01-09T02:31:14;102734.75;;;-14.09;100.00
36964;BME280;22878;48.616;35.326;2023-01-09T02:34:04;102728.25;;;-14.08;100.00
36964;BME280;22878;48.616;35.326;2023-01-09T02:41:59;102706.88;;;-14.01;100.00
36964;BME280;22878;48.616;35.326;2023-01-09T02:44:33;102709.44;;;-14.00;100.00
36964;BME280;22878;48.616;35.326;2023-01-09T02:47:32;102706.84;;;-14.00;100.00
36964;BME280;22878;48.616;35.326;2023-01-09T02:49:50;102699.56;;;-14.02;100.00
36964;BME280;22878;48.616;35.326;2023-01-09T03:01:06;102697.33;;;-13.99;100.00
36964;BME280;22878;48.616;35.326;2023-01-09T03:03:51;102700.02;;;-14.02;100.00
36964;BME280;22878;48.616;35.326;2023-01-09T03:09:20;102696.71;;;-14.07;100.00
36964;BME280;22878;48.616;35.326;2023-01-09T03:12:01;102694.22;;;-14.10;100.00
36964;BME280;22878;48.616;35.326;2023-01-09T03:14:32;102704.19;;;-14.11;100.00
36964;BME280;22878;48.616;35.326;2023-01-09T03:17:02;102698.20;;;-14.13;100.00
36964;BME280;22878;48.616;35.326;2023-01-09T03:19:32;102703.42;;;-14.15;100.00
36964;BME280;22878;48.616;35.326;2023-01-09T03:22:00;102704.71;;;-14.15;100.00
36964;BME280;22878;48.616;35.326;2023-01-09T03:24:27;102705.23;;;-14.17;100.00
36964;BME280;22878;48.616;35.326;2023-01-09T03:26:53;102698.76;;;-14.17;100.00
36964;BME280;22878;48.616;35.326;2023-01-09T03:29:20;102703.12;;;-14.19;100.00
36964;BME280;22878;48.616;35.326;2023-01-09T03:31:46;102702.28;;;-14.20;100.00
36964;BME280;22878;48.616;35.326;2023-01-09T03:34:13;102700.98;;;-14.20;100.00
36964;BME280;22878;48.616;35.326;2023-01-09T03:36:39;102703.22;;;-14.22;100.00
36964;BME280;22878;48.616;35.326;2023-01-09T03:39:05;102698.50;;;-14.23;100.00
36964;BME280;22878;48.616;35.326;2023-01-09T03:41:31;102697.75;;;-14.26;100.00
36964;BME280;22878;48.616;35.326;2023-01-09T03:43:58;102699.89;;;-14.26;100.00
36964;BME280;22878;48.616;35.326;2023-01-09T03:46:24;102703.77;;;-14.26;100.00
36964;BME280;22878;48.616;35.326;2023-01-09T03:48:50;102697.69;;;-14.25;100.00
36964;BME280;22878;48.616;35.326;2023-01-09T03:51:16;102694.61;;;-14.23;100.00
36964;BME280;22878;48.616;35.326;2023-01-09T03:53:42;102703.25;;;-14.24;100.00
36964;BME280;22878;48.616;35.326;2023-01-09T03:56:09;102704.06;;;-14.22;100.00
36964;BME280;22878;48.616;35.326;2023-01-09T03:58:35;102705.33;;;-14.20;100.00
36964;BME280;22878;48.616;35.326;2023-01-09T04:01:03;102707.36;;;-14.16;100.00
36964;BME280;22878;48.616;35.326;2023-01-09T04:03:30;102707.75;;;-14.15;100.00
36964;BME280;22878;48.616;35.326;2023-01-09T04:05:56;102710.77;;;-14.14;100.00
36964;BME280;22878;48.616;35.326;2023-01-09T04:08:22;102708.17;;;-14.14;100.00
36964;BME280;22878;48.616;35.326;2023-01-09T04:10:50;102709.02;;;-14.14;100.00
36964;BME280;22878;48.616;35.326;2023-01-09T04:13:16;102715.03;;;-14.13;100.00
36964;BME280;22878;48.616;35.326;2023-01-09T04:19:24;102702.48;;;-14.12;100.00
36964;BME280;22878;48.616;35.326;2023-01-09T04:21:50;102712.45;;;-14.13;100.00
36964;BME280;22878;48.616;35.326;2023-01-09T04:24:16;102711.25;;;-14.16;100.00
36964;BME280;22878;48.616;35.326;2023-01-09T04:26:42;102725.49;;;-14.16;100.00
36964;BME280;22878;48.616;35.326;2023-01-09T04:29:09;102725.04;;;-14.16;100.00
36964;BME280;22878;48.616;35.326;2023-01-09T04:31:35;102727.17;;;-14.15;100.00
36964;BME280;22878;48.616;35.326;2023-01-09T04:34:01;102725.39;;;-14.13;100.00
36964;BME280;22878;48.616;35.326;2023-01-09T04:36:28;102723.30;;;-14.15;100.00
36964;BME280;22878;48.616;35.326;2023-01-09T04:38:54;102723.74;;;-14.16;100.00
36964;BME280;22878;48.616;35.326;2023-01-09T04:41:20;102732.42;;;-14.17;100.00
36964;BME280;22878;48.616;35.326;2023-01-09T04:44:05;102731.97;;;-14.16;100.00
36964;BME280;22878;48.616;35.326;2023-01-09T04:46:31;102734.49;;;-14.15;100.00
36964;BME280;22878;48.616;35.326;2023-01-09T04:48:57;102734.85;;;-14.12;100.00
36964;BME280;22878;48.616;35.326;2023-01-09T04:51:24;102733.10;;;-14.12;100.00
36964;BME280;22878;48.616;35.326;2023-01-09T04:53:50;102733.55;;;-14.12;100.00
36964;BME280;22878;48.616;35.326;2023-01-09T04:56:16;102727.98;;;-14.13;100.00
36964;BME280;22878;48.616;35.326;2023-01-09T04:58:42;102724.55;;;-14.14;100.00
36964;BME280;22878;48.616;35.326;2023-01-09T05:01:09;102722.45;;;-14.16;100.00
36964;BME280;22878;48.616;35.326;2023-01-09T05:03:35;102721.13;;;-14.14;100.00
36964;BME280;22878;48.616;35.326;2023-01-09T05:06:01;102718.11;;;-14.15;100.00
36964;BME280;22878;48.616;35.326;2023-01-09T05:08:32;102712.13;;;-14.17;100.00
36964;BME280;22878;48.616;35.326;2023-01-09T05:10:59;102708.34;;;-14.21;100.00
36964;BME280;22878;48.616;35.326;2023-01-09T07:38:36;102694.63;;;3.23;65.87
36964;BME280;22878;48.616;35.326;2023-01-09T07:41:02;102701.61;;;4.21;62.72
36964;BME280;22878;48.616;35.326;2023-01-09T07:43:29;102692.09;;;4.63;57.36
36964;BME280;22878;48.616;35.326;2023-01-09T07:49:36;102698.94;;;4.33;52.38
36964;BME280;22878;48.616;35.326;2023-01-09T07:52:02;102695.41;;;4.69;51.98
36964;BME280;22878;48.616;35.326;2023-01-09T07:54:29;102690.06;;;4.86;49.18
36964;BME280;22878;48.616;35.326;2023-01-09T07:56:55;102694.70;;;4.88;48.88
36964;BME280;22878;48.616;35.326;2023-01-09T07:59:22;102690.39;;;4.70;47.18
36964;BME280;22878;48.616;35.326;2023-01-09T08:01:49;102698.93;;;4.58;48.75
36964;BME280;22878;48.616;35.326;2023-01-09T08:08:06;102699.89;;;5.80;46.11
36964;BME280;22878;48.616;35.326;2023-01-09T08:24:42;102692.13;;;8.46;46.40
36964;BME280;22878;48.616;35.326;2023-01-09T08:27:08;102693.67;;;9.00;44.24
36964;BME280;22878;48.616;35.326;2023-01-09T08:29:34;102682.52;;;9.75;43.70
36964;BME280;22878;48.616;35.326;2023-01-09T08:35:29;102679.17;;;7.81;37.88
36964;BME280;22878;48.616;35.326;2023-01-09T08:37:55;102687.89;;;4.12;37.78
36964;BME280;22878;48.616;35.326;2023-01-09T08:40:21;102687.41;;;2.15;39.57
36964;BME280;22878;48.616;35.326;2023-01-09T08:42:48;102693.02;;;0.54;40.83
36964;BME280;22878;48.616;35.326;2023-01-09T08:45:33;102703.25;;;-0.50;42.33
36964;BME280;22878;48.616;35.326;2023-01-09T08:48:18;102684.67;;;-1.42;43.19
36964;BME280;22878;48.616;35.326;2023-01-09T08:50:44;102684.56;;;-2.37;44.24
36964;BME280;22878;48.616;35.326;2023-01-09T08:53:11;102685.49;;;-3.39;46.24
36964;BME280;22878;48.616;35.326;2023-01-09T08:55:37;102685.94;;;-3.86;47.32
36964;BME280;22878;48.616;35.326;2023-01-09T08:58:03;102681.39;;;-4.14;48.23
36964;BME280;22878;48.616;35.326;2023-01-09T09:00:30;102681.77;;;-4.31;48.25
36964;BME280;22878;48.616;35.326;2023-01-09T09:02:57;102679.46;;;-4.54;47.98
36964;BME280;22878;48.616;35.326;2023-01-09T09:05:27;102678.67;;;-4.80;48.54
36964;BME280;22878;48.616;35.326;2023-01-09T09:07:54;102679.34;;;-5.02;48.92
36964;BME280;22878;48.616;35.326;2023-01-09T09:10:23;102670.51;;;-5.14;49.27
36964;BME280;22878;48.616;35.326;2023-01-09T09:19:36;102661.77;;;-5.27;52.45
36964;BME280;22878;48.616;35.326;2023-01-09T09:22:04;102655.41;;;-5.30;52.97
36964;BME280;22878;48.616;35.326;2023-01-09T09:24:30;102650.55;;;-5.29;53.33
36964;BME280;22878;48.616;35.326;2023-01-09T09:26:57;102652.58;;;-5.40;52.93
36964;BME280;22878;48.616;35.326;2023-01-09T09:29:23;102645.33;;;-5.49;53.95
36964;BME280;22878;48.616;35.326;2023-01-09T09:31:49;102638.43;;;-5.44;54.84
36964;BME280;22878;48.616;35.326;2023-01-09T09:34:16;102643.59;;;-5.30;55.23
36964;BME280;22878;48.616;35.326;2023-01-09T09:36:42;102638.86;;;-5.25;55.81
36964;BME280;22878;48.616;35.326;2023-01-09T09:39:08;102633.40;;;-5.22;55.69
36964;BME280;22878;48.616;35.326;2023-01-09T09:41:40;102632.62;;;-5.17;56.41
36964;BME280;22878;48.616;35.326;2023-01-09T09:47:35;102619.93;;;-5.05;58.08
36964;BME280;22878;48.616;35.326;2023-01-09T09:50:28;102621.08;;;-4.96;58.03
36964;BME280;22878;48.616;35.326;2023-01-09T09:53:16;102614.64;;;-4.92;58.42
36964;BME280;22878;48.616;35.326;2023-01-09T09:55:42;102610.81;;;-4.93;58.92
36964;BME280;22878;48.616;35.326;2023-01-09T09:58:22;102616.56;;;-4.88;60.19
36964;BME280;22878;48.616;35.326;2023-01-09T10:00:54;102602.05;;;-4.81;59.87
36964;BME280;22878;48.616;35.326;2023-01-09T10:03:25;102592.50;;;-4.76;60.74
36964;BME280;22878;48.616;35.326;2023-01-09T10:24:21;102559.04;;;-3.85;63.12
36964;BME280;22878;48.616;35.326;2023-01-09T10:26:54;102563.16;;;-3.70;63.24
36964;BME280;22878;48.616;35.326;2023-01-09T10:29:38;102556.33;;;-3.73;62.86
36964;BME280;22878;48.616;35.326;2023-01-09T10:32:28;102557.77;;;-3.69;62.96
36964;BME280;22878;48.616;35.326;2023-01-09T10:42:00;102548.56;;;-3.52;63.66
36964;BME280;22878;48.616;35.326;2023-01-09T10:44:29;102538.13;;;-3.53;62.87
36964;BME280;22878;48.616;35.326;2023-01-09T10:47:19;102533.72;;;-3.53;63.50
36964;BME280;22878;48.616;35.326;2023-01-09T10:49:50;102533.48;;;-3.50;63.50
36964;BME280;22878;48.616;35.326;2023-01-09T10:52:18;102534.42;;;-3.45;63.89
36964;BME280;22878;48.616;35.326;2023-01-09T10:54:57;102529.98;;;-3.50;64.05
36964;BME280;22878;48.616;35.326;2023-01-09T10:57:40;102521.24;;;-3.51;64.22
36964;BME280;22878;48.616;35.326;2023-01-09T11:00:19;102527.00;;;-3.57;64.56
36964;BME280;22878;48.616;35.326;2023-01-09T11:02:48;102522.45;;;-3.55;65.13
36964;BME280;22878;48.616;35.326;2023-01-09T11:05:22;102514.55;;;-3.49;65.49
36964;BME280;22878;48.616;35.326;2023-01-09T11:08:00;102519.20;;;-3.47;65.22
36964;BME280;22878;48.616;35.326;2023-01-09T11:13:22;102528.56;;;-3.43;65.27
36964;BME280;22878;48.616;35.326;2023-01-09T11:16:15;102518.85;;;-3.48;65.80
36964;BME280;22878;48.616;35.326;2023-01-09T11:18:57;102516.46;;;-3.46;66.29
36964;BME280;22878;48.616;35.326;2023-01-09T11:27:19;102528.56;;;-3.37;67.66
36964;BME280;22878;48.616;35.326;2023-01-09T11:32:54;102547.95;;;-3.38;67.91
36964;BME280;22878;48.616;35.326;2023-01-09T11:35:29;102536.58;;;-3.39;68.41
36964;BME280;22878;48.616;35.326;2023-01-09T11:38:06;102541.26;;;-3.37;69.47
36964;BME280;22878;48.616;35.326;2023-01-09T11:40:43;102543.06;;;-3.32;70.35
36964;BME280;22878;48.616;35.326;2023-01-09T11:43:28;102533.59;;;-3.29;69.78
36964;BME280;22878;48.616;35.326;2023-01-09T11:46:07;102533.35;;;-3.31;70.28
36964;BME280;22878;48.616;35.326;2023-01-09T11:51:19;102504.70;;;-3.25;70.88
36964;BME280;22878;48.616;35.326;2023-01-09T11:53:57;102515.00;;;-3.22;72.81
36964;BME280;22878;48.616;35.326;2023-01-09T11:56:40;102511.42;;;-3.21;73.19
36964;BME280;22878;48.616;35.326;2023-01-09T11:59:11;102508.80;;;-3.26;74.51
36964;BME280;22878;48.616;35.326;2023-01-09T12:01:59;102516.91;;;-3.24;74.04
36964;BME280;22878;48.616;35.326;2023-01-09T12:04:47;102523.98;;;-3.24;74.61
36964;BME280;22878;48.616;35.326;2023-01-09T12:07:37;102520.41;;;-3.17;74.89
36964;BME280;22878;48.616;35.326;2023-01-09T12:10:32;102521.59;;;-3.22;76.19
36964;BME280;22878;48.616;35.326;2023-01-09T12:19:30;102528.32;;;-3.23;77.54
36964;BME280;22878;48.616;35.326;2023-01-09T12:32:01;102541.02;;;-3.23;80.78
36964;BME280;22878;48.616;35.326;2023-01-09T12:37:25;102525.55;;;-3.27;81.39
36964;BME280;22878;48.616;35.326;2023-01-09T12:42:58;102542.20;;;-3.27;81.06
36964;BME280;22878;48.616;35.326;2023-01-09T12:46:10;102532.28;;;-3.29;80.82
36964;BME280;22878;48.616;35.326;2023-01-09T12:54:16;102527.25;;;-3.26;80.54
36964;BME280;22878;48.616;35.326;2023-01-09T12:59:46;102530.47;;;-3.23;80.93
36964;BME280;22878;48.616;35.326;2023-01-09T13:04:50;102538.00;;;-3.24;79.61
36964;BME280;22878;48.616;35.326;2023-01-09T13:07:27;102538.73;;;-3.27;80.29
36964;BME280;22878;48.616;35.326;2023-01-09T13:10:08;102528.67;;;-3.28;80.00
36964;BME280;22878;48.616;35.326;2023-01-09T13:12:37;102514.06;;;-3.32;79.82
36964;BME280;22878;48.616;35.326;2023-01-09T13:15:29;102505.44;;;-3.34;79.27
36964;BME280;22878;48.616;35.326;2023-01-09T13:18:04;102500.41;;;-3.43;79.35
36964;BME280;22878;48.616;35.326;2023-01-09T13:20:48;102506.51;;;-3.53;80.57
36964;BME280;22878;48.616;35.326;2023-01-09T13:26:51;102498.84;;;-3.56;79.70
36964;BME280;22878;48.616;35.326;2023-01-09T16:35:03;102582.23;;;-7.87;100.00
36964;BME280;22878;48.616;35.326;2023-01-09T16:37:32;102587.64;;;-7.90;100.00
36964;BME280;22878;48.616;35.326;2023-01-09T16:42:47;102590.73;;;-7.77;100.00
36964;BME280;22878;48.616;35.326;2023-01-09T16:45:39;102586.55;;;-7.72;100.00
36964;BME280;22878;48.616;35.326;2023-01-09T16:48:19;102579.93;;;-7.70;100.00
36964;BME280;22878;48.616;35.326;2023-01-09T16:50:45;102585.42;;;-7.68;100.00
36964;BME280;22878;48.616;35.326;2023-01-09T16:53:20;102588.25;;;-7.64;100.00
36964;BME280;22878;48.616;35.326;2023-01-09T16:55:49;102593.84;;;-7.63;100.00
36964;BME280;22878;48.616;35.326;2023-01-09T16:58:22;102592.06;;;-7.62;100.00
36964;BME280;22878;48.616;35.326;2023-01-09T17:00:48;102594.68;;;-7.62;100.00
36964;BME280;22878;48.616;35.326;2023-01-09T17:03:16;102594.50;;;-7.59;100.00
36964;BME280;22878;48.616;35.326;2023-01-09T17:05:48;102595.44;;;-7.60;100.00
36964;BME280;22878;48.616;35.326;2023-01-09T17:08:20;102596.67;;;-7.59;100.00
36964;BME280;22878;48.616;35.326;2023-01-09T17:10:48;102604.89;;;-7.58;100.00
36964;BME280;22878;48.616;35.326;2023-01-09T17:13:18;102607.70;;;-7.61;100.00
36964;BME280;22878;48.616;35.326;2023-01-09T17:15:44;102610.31;;;-7.61;100.00
36964;BME280;22878;48.616;35.326;2023-01-09T17:18:19;102604.68;;;-7.62;100.00
36964;BME280;22878;48.616;35.326;2023-01-09T17:23:18;102608.34;;;-7.57;100.00
36964;BME280;22878;48.616;35.326;2023-01-09T17:25:47;102606.46;;;-7.62;100.00
36964;BME280;22878;48.616;35.326;2023-01-09T17:28:33;102602.83;;;-7.60;100.00
36964;BME280;22878;48.616;35.326;2023-01-09T17:31:04;102596.09;;;-7.64;100.00
36964;BME280;22878;48.616;35.326;2023-01-09T17:33:34;102588.91;;;-7.67;100.00
36964;BME280;22878;48.616;35.326;2023-01-09T17:36:02;102585.05;;;-7.69;100.00
36964;BME280;22878;48.616;35.326;2023-01-09T17:38:31;102581.31;;;-7.72;100.00
36964;BME280;22878;48.616;35.326;2023-01-09T17:40:57;102583.27;;;-7.75;100.00
36964;BME280;22878;48.616;35.326;2023-01-09T17:43:24;102569.98;;;-7.80;100.00
36964;BME280;22878;48.616;35.326;2023-01-09T17:45:50;102579.72;;;-7.82;100.00
36964;BME280;22878;48.616;35.326;2023-01-09T17:48:19;102586.63;;;-7.88;100.00
36964;BME280;22878;48.616;35.326;2023-01-09T17:50:47;102588.48;;;-7.90;100.00
36964;BME280;22878;48.616;35.326;2023-01-09T17:53:16;102574.34;;;-7.94;100.00
36964;BME280;22878;48.616;35.326;2023-01-09T17:55:44;102573.22;;;-7.97;100.00
36964;BME280;22878;48.616;35.326;2023-01-09T17:58:22;102572.27;;;-8.04;100.00
36964;BME280;22878;48.616;35.326;2023-01-09T18:00:50;102562.75;;;-8.05;100.00
36964;BME280;22878;48.616;35.326;2023-01-09T18:03:17;102567.22;;;-8.14;100.00
36964;BME280;22878;48.616;35.326;2023-01-09T18:05:46;102566.63;;;-8.19;100.00
36964;BME280;22878;48.616;35.326;2023-01-09T18:08:12;102569.72;;;-8.19;100.00
36964;BME280;22878;48.616;35.326;2023-01-09T18:10:38;102570.62;;;-8.28;100.00
36964;BME280;22878;48.616;35.326;2023-01-09T18:13:06;102567.99;;;-8.35;100.00
36964;BME280;22878;48.616;35.326;2023-01-09T18:15:34;102559.28;;;-8.35;100.00
36964;BME280;22878;48.616;35.326;2023-01-09T18:18:00;102563.05;;;-8.39;100.00
36964;BME280;22878;48.616;35.326;2023-01-09T18:20:26;102562.09;;;-8.46;100.00
36964;BME280;22878;48.616;35.326;2023-01-09T18:22:52;102566.18;;;-8.49;100.00
36964;BME280;22878;48.616;35.326;2023-01-09T18:25:19;102558.69;;;-8.55;100.00
36964;BME280;22878;48.616;35.326;2023-01-09T18:27:45;102566.61;;;-8.56;100.00
36964;BME280;22878;48.616;35.326;2023-01-09T18:30:11;102562.96;;;-8.61;100.00
36964;BME280;22878;48.616;35.326;2023-01-09T18:32:37;102555.36;;;-8.65;100.00
36964;BME280;22878;48.616;35.326;2023-01-09T18:35:04;102569.37;;;-8.66;100.00
36964;BME280;22878;48.616;35.326;2023-01-09T18:37:35;102558.33;;;-8.72;100.00
36964;BME280;22878;48.616;35.326;2023-01-09T18:40:01;102553.27;;;-8.75;100.00
36964;BME280;22878;48.616;35.326;2023-01-09T18:42:28;102554.98;;;-8.82;100.00
36964;BME280;22878;48.616;35.326;2023-01-09T18:44:54;102557.91;;;-8.80;100.00
36964;BME280;22878;48.616;35.326;2023-01-09T18:47:22;102552.02;;;-8.83;100.00
36964;BME280;22878;48.616;35.326;2023-01-09T18:49:48;102551.34;;;-8.87;100.00
36964;BME280;22878;48.616;35.326;2023-01-09T18:52:14;102550.28;;;-8.92;100.00
36964;BME280;22878;48.616;35.326;2023-01-09T18:54:41;102551.52;;;-8.90;100.00
36964;BME280;22878;48.616;35.326;2023-01-09T18:57:11;102552.77;;;-8.97;100.00
36964;BME280;22878;48.616;35.326;2023-01-09T18:59:37;102552.39;;;-8.98;100.00
36964;BME280;22878;48.616;35.326;2023-01-09T19:02:03;102551.63;;;-9.00;100.00
36964;BME280;22878;48.616;35.326;2023-01-09T19:04:30;102539.20;;;-9.04;100.00
36964;BME280;22878;48.616;35.326;2023-01-09T19:06:56;102545.30;;;-9.12;100.00
36964;BME280;22878;48.616;35.326;2023-01-09T19:09:24;102538.04;;;-9.14;100.00
36964;BME280;22878;48.616;35.326;2023-01-09T19:11:50;102536.13;;;-9.19;100.00
36964;BME280;22878;48.616;35.326;2023-01-09T19:14:16;102528.00;;;-9.22;100.00
36964;BME280;22878;48.616;35.326;2023-01-09T19:16:43;102530.44;;;-9.19;100.00
36964;BME280;22878;48.616;35.326;2023-01-09T19:19:10;102529.57;;;-9.26;100.00
36964;BME280;22878;48.616;35.326;2023-01-09T19:21:37;102529.17;;;-9.27;100.00
36964;BME280;22878;48.616;35.326;2023-01-09T19:24:03;102523.28;;;-9.31;100.00
36964;BME280;22878;48.616;35.326;2023-01-09T19:26:30;102517.45;;;-9.36;100.00
36964;BME280;22878;48.616;35.326;2023-01-09T19:28:56;102528.88;;;-9.30;100.00
36964;BME280;22878;48.616;35.326;2023-01-09T19:31:24;102511.06;;;-9.30;100.00
36964;BME280;22878;48.616;35.326;2023-01-09T19:33:52;102512.80;;;-9.38;100.00
36964;BME280;22878;48.616;35.326;2023-01-09T19:36:20;102500.59;;;-9.38;100.00
36964;BME280;22878;48.616;35.326;2023-01-09T19:38:47;102506.05;;;-9.42;100.00
36964;BME280;22878;48.616;35.326;2023-01-09T19:41:15;102491.69;;;-9.42;100.00
36964;BME280;22878;48.616;35.326;2023-01-09T19:43:44;102484.50;;;-9.46;100.00
36964;BME280;22878;48.616;35.326;2023-01-09T19:46:14;102485.88;;;-9.47;100.00
36964;BME280;22878;48.616;35.326;2023-01-09T19:48:41;102490.72;;;-9.48;100.00
36964;BME280;22878;48.616;35.326;2023-01-09T19:51:09;102493.12;;;-9.52;100.00
36964;BME280;22878;48.616;35.326;2023-01-09T19:53:36;102490.95;;;-9.53;100.00
36964;BME280;22878;48.616;35.326;2023-01-09T19:58:41;102491.89;;;-9.54;100.00
36964;BME280;22878;48.616;35.326;2023-01-09T20:01:15;102486.77;;;-9.55;100.00
36964;BME280;22878;48.616;35.326;2023-01-09T20:03:43;102474.09;;;-9.54;100.00
36964;BME280;22878;48.616;35.326;2023-01-09T20:06:14;102480.25;;;-9.55;100.00
36964;BME280;22878;48.616;35.326;2023-01-09T20:08:46;102486.50;;;-9.51;100.00
36964;BME280;22878;48.616;35.326;2023-01-09T20:11:14;102500.09;;;-9.53;99.38
36964;BME280;22878;48.616;35.326;2023-01-09T20:13:43;102501.02;;;-9.54;100.00
36964;BME280;22878;48.616;35.326;2023-01-09T20:16:21;102502.09;;;-9.49;98.85
36964;BME280;22878;48.616;35.326;2023-01-09T20:18:46;102504.77;;;-9.51;98.70
36964;BME280;22878;48.616;35.326;2023-01-09T20:23:52;102501.63;;;-9.49;97.94
36964;BME280;22878;48.616;35.326;2023-01-09T20:26:20;102503.77;;;-9.48;97.00
36964;BME280;22878;48.616;35.326;2023-01-09T20:28:47;102507.78;;;-9.50;96.76
36964;BME280;22878;48.616;35.326;2023-01-09T20:31:15;102516.58;;;-9.44;95.97
36964;BME280;22878;48.616;35.326;2023-01-09T20:33:43;102508.15;;;-9.49;96.65
36964;BME280;22878;48.616;35.326;2023-01-09T20:36:12;102514.30;;;-9.50;96.94
36964;BME280;22878;48.616;35.326;2023-01-09T20:38:42;102525.64;;;-9.51;97.25
36964;BME280;22878;48.616;35.326;2023-01-09T20:41:09;102522.41;;;-9.47;96.11
36964;BME280;22878;48.616;35.326;2023-01-09T20:43:39;102529.09;;;-9.50;96.03
36964;BME280;22878;48.616;35.326;2023-01-09T20:46:06;102534.31;;;-9.50;96.18
36964;BME280;22878;48.616;35.326;2023-01-09T20:48:33;102540.47;;;-9.51;96.23
36964;BME280;22878;48.616;35.326;2023-01-09T20:51:04;102537.92;;;-9.53;96.94
36964;BME280;22878;48.616;35.326;2023-01-09T20:53:32;102530.50;;;-9.52;97.16
36964;BME280;22878;48.616;35.326;2023-01-09T20:56:01;102534.31;;;-9.50;95.88
36964;BME280;22878;48.616;35.326;2023-01-09T20:58:29;102526.58;;;-9.52;96.69
36964;BME280;22878;48.616;35.326;2023-01-09T21:00:56;102527.05;;;-9.52;96.29